Abano — CSY02 — position and weather

sailwx.info

Track history (hours):
 
Tides and Currents Weather Stations Pressure Air Temp Water Temp Dewpoint Dewpoint Depression Visibility Wind Speed Wind Dir Waves Ship Positions

Abano

Last reported at 2018-Feb-19 16:19 UTC. Time now 2018-Feb-20 17:47 UTC.
Position N 38°42' W 009°10'.

Type: Port tender. MMSI: 263673670.

Date/timePositionNaut miles runAvg speedWind from/ knotsBaromVisibWave heightAir tempDewpointWater temp
2018-Feb-19 16:19N 38°42' W 009°10'2 7.5
2018-Feb-19 15:59N 38°41' W 009°12'1 1.6
2018-Feb-19 15:27N 38°41' W 009°13'2 4.9
2018-Feb-19 14:57N 38°41' W 009°10'  
2018-Feb-17 04:35N 38°42' W 009°08'1 8.3
2018-Feb-17 04:24N 38°42' W 009°06'2 3.3
2018-Feb-17 03:44N 38°41' W 009°04'0 1.1
2018-Feb-17 03:18N 38°41' W 009°04'2 6.0
2018-Feb-17 02:56N 38°42' W 009°07'2 0.3
2018-Feb-16 21:12N 38°42' W 009°09'2 4.0
2018-Feb-16 20:49N 38°42' W 009°07'0 0.0
2018-Feb-16 20:25N 38°42' W 009°07'0 0.0
2018-Feb-16 10:31N 38°42' W 009°07'1 8.0
2018-Feb-16 10:28N 38°42' W 009°07'0 0.0
2018-Feb-15 21:11N 38°42' W 009°08'0 0.9
2018-Feb-15 20:57N 38°42' W 009°08'1 0.3
2018-Feb-15 18:59N 38°42' W 009°09'1 0.0
2018-Feb-14 23:10N 38°42' W 009°08'2 7.4
2018-Feb-14 22:58N 38°42' W 009°06'2 2.5
2018-Feb-14 22:09N 38°41' W 009°04'2 6.8
2018-Feb-14 21:55N 38°41' W 009°06'  
2018-Feb-12 08:26N 38°42' W 009°09'3 7.9
2018-Feb-12 08:00N 38°41' W 009°13'0 0.6
2018-Feb-12 07:23N 38°41' W 009°14'1 3.5
2018-Feb-12 07:00N 38°41' W 009°12'2 0.2
2018-Feb-11 18:56N 38°42' W 009°09'3 7.4
2018-Feb-11 18:30N 38°41' W 009°13'1 1.7
2018-Feb-11 17:56N 38°41' W 009°14'0 0.1
2018-Feb-11 17:30N 38°41' W 009°14'1 2.4
2018-Feb-11 17:00N 38°41' W 009°13'4 0.2
2018-Feb-10 20:53N 38°42' W 009°08'3 7.5
2018-Feb-10 20:29N 38°41' W 009°05'1 1.2
2018-Feb-10 19:53N 38°41' W 009°04'1 2.2
2018-Feb-10 19:29N 38°41' W 009°05'4 0.5
2018-Feb-10 11:43N 38°42' W 009°10'2 6.1
2018-Feb-10 11:18N 38°42' W 009°07'0 0.4
2018-Feb-10 10:55N 38°41' W 009°06'0 0.1
2018-Feb-10 10:29N 38°42' W 009°06'0 0.0
2018-Feb-10 09:51N 38°42' W 009°06'0 0.0
2018-Feb-10 09:27N 38°42' W 009°06'0 0.2
2018-Feb-10 08:59N 38°41' W 009°06'  
Track history (hours):
 
Tides and Currents Weather Stations Pressure Air Temp Water Temp Dewpoint Dewpoint Depression Visibility Wind Speed Wind Dir Waves Ship Positions

Abano

Last reported at 2018-Feb-19 16:19 UTC. Time now 2018-Feb-20 17:47 UTC.
Position N 38°42' W 009°10'.

Type: Port tender. MMSI: 263673670.

Date/timePositionNaut miles runAvg speedWind from/ knotsBaromVisibWave heightAir tempDewpointWater temp
2018-Feb-19 16:19N 38°42' W 009°10'2 7.5
2018-Feb-19 15:59N 38°41' W 009°12'1 1.6
2018-Feb-19 15:27N 38°41' W 009°13'2 4.9
2018-Feb-19 14:57N 38°41' W 009°10'  
2018-Feb-17 04:35N 38°42' W 009°08'1 8.3
2018-Feb-17 04:24N 38°42' W 009°06'2 3.3
2018-Feb-17 03:44N 38°41' W 009°04'0 1.1
2018-Feb-17 03:18N 38°41' W 009°04'2 6.0
2018-Feb-17 02:56N 38°42' W 009°07'2 0.3
2018-Feb-16 21:12N 38°42' W 009°09'2 4.0
2018-Feb-16 20:49N 38°42' W 009°07'0 0.0
2018-Feb-16 20:25N 38°42' W 009°07'0 0.0
2018-Feb-16 10:31N 38°42' W 009°07'1 8.0
2018-Feb-16 10:28N 38°42' W 009°07'0 0.0
2018-Feb-15 21:11N 38°42' W 009°08'0 0.9
2018-Feb-15 20:57N 38°42' W 009°08'1 0.3
2018-Feb-15 18:59N 38°42' W 009°09'1 0.0
2018-Feb-14 23:10N 38°42' W 009°08'2 7.4
2018-Feb-14 22:58N 38°42' W 009°06'2 2.5
2018-Feb-14 22:09N 38°41' W 009°04'2 6.8
2018-Feb-14 21:55N 38°41' W 009°06'  
2018-Feb-12 08:26N 38°42' W 009°09'3 7.9
2018-Feb-12 08:00N 38°41' W 009°13'0 0.6
2018-Feb-12 07:23N 38°41' W 009°14'1 3.5
2018-Feb-12 07:00N 38°41' W 009°12'2 0.2
2018-Feb-11 18:56N 38°42' W 009°09'3 7.4
2018-Feb-11 18:30N 38°41' W 009°13'1 1.7
2018-Feb-11 17:56N 38°41' W 009°14'0 0.1
2018-Feb-11 17:30N 38°41' W 009°14'1 2.4
2018-Feb-11 17:00N 38°41' W 009°13'4 0.2
2018-Feb-10 20:53N 38°42' W 009°08'3 7.5
2018-Feb-10 20:29N 38°41' W 009°05'1 1.2
2018-Feb-10 19:53N 38°41' W 009°04'1 2.2
2018-Feb-10 19:29N 38°41' W 009°05'4 0.5
2018-Feb-10 11:43N 38°42' W 009°10'2 6.1
2018-Feb-10 11:18N 38°42' W 009°07'0 0.4
2018-Feb-10 10:55N 38°41' W 009°06'0 0.1
2018-Feb-10 10:29N 38°42' W 009°06'0 0.0
2018-Feb-10 09:51N 38°42' W 009°06'0 0.0
2018-Feb-10 09:27N 38°42' W 009°06'0 0.2
2018-Feb-10 08:59N 38°41' W 009°06'  

Dump ship's entire track history